sensor_id;sensor_type;location;lat;lon;timestamp;pressure;altitude;pressure_sealevel;temperature;humidity
77979;BME280;67169;50.268;8.694;2023-04-06T00:02:25;99997.03;;;-1.30;72.16
77979;BME280;67169;50.268;8.694;2023-04-06T00:04:51;99995.28;;;-1.28;72.40
77979;BME280;67169;50.268;8.694;2023-04-06T00:07:18;100000.53;;;-1.31;73.32
77979;BME280;67169;50.268;8.694;2023-04-06T00:09:45;99973.88;;;-1.53;73.98
77979;BME280;67169;50.268;8.694;2023-04-06T00:12:11;99991.63;;;-1.41;73.48
77979;BME280;67169;50.268;8.694;2023-04-06T00:14:38;99989.03;;;-1.35;73.59
77979;BME280;67169;50.268;8.694;2023-04-06T00:17:05;99982.75;;;-1.48;74.73
77979;BME280;67169;50.268;8.694;2023-04-06T00:19:33;99978.13;;;-1.62;75.14
77979;BME280;67169;50.268;8.694;2023-04-06T00:22:00;99978.06;;;-1.67;74.86
77979;BME280;67169;50.268;8.694;2023-04-06T00:24:27;99971.88;;;-1.69;74.84
77979;BME280;67169;50.268;8.694;2023-04-06T00:26:54;99974.59;;;-1.64;74.83
77979;BME280;67169;50.268;8.694;2023-04-06T00:29:20;99969.28;;;-1.66;74.83
77979;BME280;67169;50.268;8.694;2023-04-06T00:31:47;99976.25;;;-1.71;75.06
77979;BME280;67169;50.268;8.694;2023-04-06T00:34:13;99969.22;;;-1.69;74.37
77979;BME280;67169;50.268;8.694;2023-04-06T00:36:42;99973.81;;;-1.56;74.36
77979;BME280;67169;50.268;8.694;2023-04-06T00:39:09;99974.75;;;-1.54;74.12
77979;BME280;67169;50.268;8.694;2023-04-06T00:41:36;99969.38;;;-1.60;74.64
77979;BME280;67169;50.268;8.694;2023-04-06T00:44:02;99978.16;;;-1.61;74.41
77979;BME280;67169;50.268;8.694;2023-04-06T00:46:29;99979.03;;;-1.59;73.83
77979;BME280;67169;50.268;8.694;2023-04-06T00:48:56;99962.25;;;-1.65;74.52
77979;BME280;67169;50.268;8.694;2023-04-06T00:51:23;99955.13;;;-1.73;74.84
77979;BME280;67169;50.268;8.694;2023-04-06T00:53:51;99955.16;;;-1.70;74.14
77979;BME280;67169;50.268;8.694;2023-04-06T00:56:18;99944.41;;;-1.83;74.90
77979;BME280;67169;50.268;8.694;2023-04-06T00:58:45;99943.59;;;-1.79;75.44
77979;BME280;67169;50.268;8.694;2023-04-06T01:01:11;99945.31;;;-1.83;75.50
77979;BME280;67169;50.268;8.694;2023-04-06T01:03:38;99946.13;;;-1.87;75.31
77979;BME280;67169;50.268;8.694;2023-04-06T01:06:05;99944.31;;;-1.91;75.97
77979;BME280;67169;50.268;8.694;2023-04-06T01:08:31;99951.22;;;-1.99;76.34
77979;BME280;67169;50.268;8.694;2023-04-06T01:11:00;99952.06;;;-2.02;76.62
77979;BME280;67169;50.268;8.694;2023-04-06T01:13:27;99949.53;;;-1.96;76.13
77979;BME280;67169;50.268;8.694;2023-04-06T01:15:53;99950.50;;;-1.89;75.27
77979;BME280;67169;50.268;8.694;2023-04-06T01:18:25;99952.13;;;-1.99;75.66
77979;BME280;67169;50.268;8.694;2023-04-06T01:20:52;99932.53;;;-2.16;76.09
77979;BME280;67169;50.268;8.694;2023-04-06T01:23:20;99941.63;;;-1.96;75.92
77979;BME280;67169;50.268;8.694;2023-04-06T01:25:47;99938.00;;;-2.01;76.21
77979;BME280;67169;50.268;8.694;2023-04-06T01:28:13;99935.28;;;-2.07;76.39
77979;BME280;67169;50.268;8.694;2023-04-06T01:30:40;99942.25;;;-2.10;76.72
77979;BME280;67169;50.268;8.694;2023-04-06T01:33:07;99943.19;;;-2.07;76.30
77979;BME280;67169;50.268;8.694;2023-04-06T01:35:33;99936.13;;;-2.09;75.85
77979;BME280;67169;50.268;8.694;2023-04-06T01:38:00;99936.03;;;-2.16;76.74
77979;BME280;67169;50.268;8.694;2023-04-06T01:40:28;99935.06;;;-2.22;76.44
77979;BME280;67169;50.268;8.694;2023-04-06T01:42:55;99930.66;;;-2.23;76.13
77979;BME280;67169;50.268;8.694;2023-04-06T01:45:21;99926.16;;;-2.27;75.78
77979;BME280;67169;50.268;8.694;2023-04-06T01:47:48;99928.72;;;-2.33;76.32
77979;BME280;67169;50.268;8.694;2023-04-06T01:50:15;99928.81;;;-2.27;76.06
77979;BME280;67169;50.268;8.694;2023-04-06T01:52:41;99923.63;;;-2.23;76.25
77979;BME280;67169;50.268;8.694;2023-04-06T01:55:08;99930.72;;;-2.17;75.92
77979;BME280;67169;50.268;8.694;2023-04-06T01:57:36;99926.09;;;-2.32;76.88
77979;BME280;67169;50.268;8.694;2023-04-06T02:00:04;99922.59;;;-2.32;76.21
77979;BME280;67169;50.268;8.694;2023-04-06T02:02:30;99925.13;;;-2.39;76.86
77979;BME280;67169;50.268;8.694;2023-04-06T02:04:57;99924.19;;;-2.42;76.96
77979;BME280;67169;50.268;8.694;2023-04-06T02:07:23;99922.38;;;-2.46;77.66
77979;BME280;67169;50.268;8.694;2023-04-06T02:09:54;99921.59;;;-2.41;77.80
77979;BME280;67169;50.268;8.694;2023-04-06T02:12:21;99922.38;;;-2.45;77.82
77979;BME280;67169;50.268;8.694;2023-04-06T02:14:50;99922.44;;;-2.42;77.83
77979;BME280;67169;50.268;8.694;2023-04-06T02:17:17;99924.19;;;-2.44;77.87
77979;BME280;67169;50.268;8.694;2023-04-06T02:19:43;99921.44;;;-2.48;78.01
77979;BME280;67169;50.268;8.694;2023-04-06T02:22:10;99911.53;;;-2.65;78.69
77979;BME280;67169;50.268;8.694;2023-04-06T02:24:36;99914.06;;;-2.69;78.82
77979;BME280;67169;50.268;8.694;2023-04-06T02:27:03;99919.22;;;-2.75;78.98
77979;BME280;67169;50.268;8.694;2023-04-06T02:29:29;99918.44;;;-2.71;79.15
77979;BME280;67169;50.268;8.694;2023-04-06T02:31:57;99907.91;;;-2.70;79.48
77979;BME280;67169;50.268;8.694;2023-04-06T02:34:24;99908.84;;;-2.66;78.93
77979;BME280;67169;50.268;8.694;2023-04-06T02:36:51;99885.03;;;-2.74;78.89
77979;BME280;67169;50.268;8.694;2023-04-06T02:39:17;99907.28;;;-2.55;79.03
77979;BME280;67169;50.268;8.694;2023-04-06T02:41:44;99909.19;;;-2.48;78.37
77979;BME280;67169;50.268;8.694;2023-04-06T02:44:11;99903.06;;;-2.45;78.37
77979;BME280;67169;50.268;8.694;2023-04-06T02:46:37;99908.31;;;-2.45;77.64
77979;BME280;67169;50.268;8.694;2023-04-06T02:49:05;99908.28;;;-2.48;78.22
77979;BME280;67169;50.268;8.694;2023-04-06T02:51:32;99903.94;;;-2.46;78.09
77979;BME280;67169;50.268;8.694;2023-04-06T02:53:59;99906.56;;;-2.46;77.51
77979;BME280;67169;50.268;8.694;2023-04-06T02:56:25;99914.63;;;-2.35;77.46
77979;BME280;67169;50.268;8.694;2023-04-06T02:58:52;99915.41;;;-2.43;77.39
77979;BME280;67169;50.268;8.694;2023-04-06T03:01:18;99915.34;;;-2.47;77.50
77979;BME280;67169;50.268;8.694;2023-04-06T03:03:45;99914.47;;;-2.46;77.70
77979;BME280;67169;50.268;8.694;2023-04-06T03:06:13;99923.06;;;-2.58;78.21
77979;BME280;67169;50.268;8.694;2023-04-06T03:08:40;99918.63;;;-2.60;78.78
77979;BME280;67169;50.268;8.694;2023-04-06T03:11:06;99920.19;;;-2.70;79.59
77979;BME280;67169;50.268;8.694;2023-04-06T03:13:33;99919.25;;;-2.74;79.41
77979;BME280;67169;50.268;8.694;2023-04-06T03:15:59;99918.41;;;-2.73;79.41
77979;BME280;67169;50.268;8.694;2023-04-06T03:18:26;99917.50;;;-2.73;79.87
77979;BME280;67169;50.268;8.694;2023-04-06T03:20:53;99913.94;;;-2.75;79.50
77979;BME280;67169;50.268;8.694;2023-04-06T03:23:21;99909.75;;;-2.66;79.49
77979;BME280;67169;50.268;8.694;2023-04-06T03:25:48;99908.97;;;-2.60;79.15
77979;BME280;67169;50.268;8.694;2023-04-06T03:28:15;99914.19;;;-2.63;78.89
77979;BME280;67169;50.268;8.694;2023-04-06T03:30:42;99910.72;;;-2.59;78.89
77979;BME280;67169;50.268;8.694;2023-04-06T03:33:08;99914.22;;;-2.60;78.99
77979;BME280;67169;50.268;8.694;2023-04-06T03:35:35;99920.38;;;-2.59;79.46
77979;BME280;67169;50.268;8.694;2023-04-06T03:38:02;99915.94;;;-2.62;79.12
77979;BME280;67169;50.268;8.694;2023-04-06T03:40:30;99922.06;;;-2.65;79.47
77979;BME280;67169;50.268;8.694;2023-04-06T03:42:57;99915.88;;;-2.65;79.86
77979;BME280;67169;50.268;8.694;2023-04-06T03:45:24;99920.22;;;-2.69;79.71
77979;BME280;67169;50.268;8.694;2023-04-06T03:47:50;99914.13;;;-2.68;79.57
77979;BME280;67169;50.268;8.694;2023-04-06T03:50:17;99911.44;;;-2.69;79.99
77979;BME280;67169;50.268;8.694;2023-04-06T03:52:43;99913.31;;;-2.64;79.58
77979;BME280;67169;50.268;8.694;2023-04-06T03:55:10;99908.75;;;-2.72;79.93
77979;BME280;67169;50.268;8.694;2023-04-06T03:57:38;99915.69;;;-2.77;80.01
77979;BME280;67169;50.268;8.694;2023-04-06T04:00:06;99913.88;;;-2.81;80.61
77979;BME280;67169;50.268;8.694;2023-04-06T04:02:32;99919.91;;;-2.87;80.53
77979;BME280;67169;50.268;8.694;2023-04-06T04:04:59;99899.59;;;-2.96;80.91
77979;BME280;67169;50.268;8.694;2023-04-06T04:07:25;99923.50;;;-2.82;81.02
77979;BME280;67169;50.268;8.694;2023-04-06T04:09:52;99920.84;;;-2.83;81.10
77979;BME280;67169;50.268;8.694;2023-04-06T04:12:19;99924.28;;;-2.88;80.94
77979;BME280;67169;50.268;8.694;2023-04-06T04:14:46;99924.16;;;-2.94;81.16
77979;BME280;67169;50.268;8.694;2023-04-06T04:17:13;99918.94;;;-2.91;81.09
77979;BME280;67169;50.268;8.694;2023-04-06T04:19:40;99927.66;;;-2.95;80.96
77979;BME280;67169;50.268;8.694;2023-04-06T04:22:06;99930.50;;;-2.82;81.35
77979;BME280;67169;50.268;8.694;2023-04-06T04:24:33;99936.69;;;-2.82;80.98
77979;BME280;67169;50.268;8.694;2023-04-06T04:27:00;99933.13;;;-2.84;80.82
77979;BME280;67169;50.268;8.694;2023-04-06T04:29:27;99937.34;;;-2.92;81.43
77979;BME280;67169;50.268;8.694;2023-04-06T04:31:55;99931.25;;;-2.90;81.25
77979;BME280;67169;50.268;8.694;2023-04-06T04:34:22;99939.13;;;-2.90;81.57
77979;BME280;67169;50.268;8.694;2023-04-06T04:36:50;99923.09;;;-3.03;81.20
77979;BME280;67169;50.268;8.694;2023-04-06T04:39:16;99942.44;;;-3.00;81.42
77979;BME280;67169;50.268;8.694;2023-04-06T04:41:43;99939.00;;;-2.99;81.74
77979;BME280;67169;50.268;8.694;2023-04-06T04:44:10;99938.03;;;-3.02;81.92
77979;BME280;67169;50.268;8.694;2023-04-06T04:46:37;99940.69;;;-3.02;82.12
77979;BME280;67169;50.268;8.694;2023-04-06T04:49:04;99937.25;;;-2.97;81.86
77979;BME280;67169;50.268;8.694;2023-04-06T04:51:31;99931.03;;;-3.00;81.78
77979;BME280;67169;50.268;8.694;2023-04-06T04:53:59;99931.88;;;-3.03;81.64
77979;BME280;67169;50.268;8.694;2023-04-06T04:56:25;99940.56;;;-3.07;82.38
77979;BME280;67169;50.268;8.694;2023-04-06T04:58:52;99946.69;;;-3.08;82.44
77979;BME280;67169;50.268;8.694;2023-04-06T05:01:19;99950.25;;;-3.06;82.69
77979;BME280;67169;50.268;8.694;2023-04-06T05:03:46;99947.78;;;-2.97;82.75
77979;BME280;67169;50.268;8.694;2023-04-06T05:06:13;99947.03;;;-2.90;82.45
77979;BME280;67169;50.268;8.694;2023-04-06T05:08:40;99947.97;;;-2.88;81.93
77979;BME280;67169;50.268;8.694;2023-04-06T05:11:07;99950.53;;;-2.89;82.05
77979;BME280;67169;50.268;8.694;2023-04-06T05:13:34;99947.03;;;-2.90;82.21
77979;BME280;67169;50.268;8.694;2023-04-06T05:16:01;99940.00;;;-2.91;81.93
77979;BME280;67169;50.268;8.694;2023-04-06T05:18:27;99950.72;;;-2.81;81.79
77979;BME280;67169;50.268;8.694;2023-04-06T05:20:54;99948.16;;;-2.77;81.92
77979;BME280;67169;50.268;8.694;2023-04-06T05:23:22;99957.13;;;-2.66;81.88
77979;BME280;67169;50.268;8.694;2023-04-06T05:25:49;99956.44;;;-2.55;81.65
77979;BME280;67169;50.268;8.694;2023-04-06T05:28:15;99945.13;;;-2.50;81.49
77979;BME280;67169;50.268;8.694;2023-04-06T05:30:42;99948.81;;;-2.40;81.42
77979;BME280;67169;50.268;8.694;2023-04-06T05:33:09;99936.53;;;-2.38;80.98
77979;BME280;67169;50.268;8.694;2023-04-06T05:35:36;99950.09;;;-2.17;80.81
77979;BME280;67169;50.268;8.694;2023-04-06T05:38:02;99940.53;;;-2.07;80.43
77979;BME280;67169;50.268;8.694;2023-04-06T05:40:30;99946.84;;;-1.97;80.12
77979;BME280;67169;50.268;8.694;2023-04-06T05:42:57;99949.56;;;-1.93;79.47
77979;BME280;67169;50.268;8.694;2023-04-06T05:45:23;99951.28;;;-1.95;80.12
77979;BME280;67169;50.268;8.694;2023-04-06T05:47:50;99943.59;;;-1.79;82.46
77979;BME280;67169;50.268;8.694;2023-04-06T05:50:17;99946.44;;;-1.65;81.10
77979;BME280;67169;50.268;8.694;2023-04-06T05:52:43;99951.03;;;-1.51;79.96
77979;BME280;67169;50.268;8.694;2023-04-06T05:55:11;99946.00;;;-1.32;78.67
77979;BME280;67169;50.268;8.694;2023-04-06T05:57:39;99954.91;;;-1.21;77.99
77979;BME280;67169;50.268;8.694;2023-04-06T06:00:07;99958.56;;;-1.11;78.39
77979;BME280;67169;50.268;8.694;2023-04-06T06:02:35;99957.84;;;-1.00;78.39
77979;BME280;67169;50.268;8.694;2023-04-06T06:05:02;99956.25;;;-0.85;77.89
77979;BME280;67169;50.268;8.694;2023-04-06T06:07:28;99955.50;;;-0.69;77.84
77979;BME280;67169;50.268;8.694;2023-04-06T06:09:56;99948.66;;;-0.52;76.53
77979;BME280;67169;50.268;8.694;2023-04-06T06:12:23;99952.31;;;-0.37;75.79
77979;BME280;67169;50.268;8.694;2023-04-06T06:14:51;99955.94;;;-0.21;74.81
77979;BME280;67169;50.268;8.694;2023-04-06T06:17:18;99961.34;;;-0.08;73.77
77979;BME280;67169;50.268;8.694;2023-04-06T06:19:45;99956.22;;;0.11;73.23
77979;BME280;67169;50.268;8.694;2023-04-06T06:22:11;99952.78;;;0.26;72.26
77979;BME280;67169;50.268;8.694;2023-04-06T06:24:38;99959.03;;;0.37;71.30
77979;BME280;67169;50.268;8.694;2023-04-06T06:27:08;99956.41;;;0.38;70.76
77979;BME280;67169;50.268;8.694;2023-04-06T06:29:34;99954.66;;;0.42;70.44
77979;BME280;67169;50.268;8.694;2023-04-06T06:32:02;99960.00;;;0.50;70.68
77979;BME280;67169;50.268;8.694;2023-04-06T06:34:29;99968.91;;;0.65;70.58
77979;BME280;67169;50.268;8.694;2023-04-06T06:36:56;99959.22;;;0.74;69.63
77979;BME280;67169;50.268;8.694;2023-04-06T06:39:22;99954.84;;;0.77;68.97
77979;BME280;67169;50.268;8.694;2023-04-06T06:41:49;99944.22;;;0.74;69.80
77979;BME280;67169;50.268;8.694;2023-04-06T06:44:16;99962.88;;;0.97;69.35
77979;BME280;67169;50.268;8.694;2023-04-06T06:46:43;99955.88;;;1.17;69.08
77979;BME280;67169;50.268;8.694;2023-04-06T06:49:11;99953.22;;;1.24;69.19
77979;BME280;67169;50.268;8.694;2023-04-06T06:51:39;99952.38;;;1.37;68.78
77979;BME280;67169;50.268;8.694;2023-04-06T06:54:06;99948.84;;;1.35;69.04
77979;BME280;67169;50.268;8.694;2023-04-06T06:56:32;99958.53;;;1.37;69.59
77979;BME280;67169;50.268;8.694;2023-04-06T06:59:01;99956.78;;;1.39;69.89
77979;BME280;67169;50.268;8.694;2023-04-06T07:01:27;99948.88;;;1.46;70.04
77979;BME280;67169;50.268;8.694;2023-04-06T07:03:54;99952.41;;;1.52;69.91
77979;BME280;67169;50.268;8.694;2023-04-06T07:06:22;99935.63;;;1.56;70.12
77979;BME280;67169;50.268;8.694;2023-04-06T07:08:49;99948.88;;;1.67;68.99
77979;BME280;67169;50.268;8.694;2023-04-06T07:11:16;99948.88;;;1.88;69.20
77979;BME280;67169;50.268;8.694;2023-04-06T07:13:42;99942.69;;;1.96;67.34
77979;BME280;67169;50.268;8.694;2023-04-06T07:16:09;99946.25;;;2.01;66.68
77979;BME280;67169;50.268;8.694;2023-04-06T07:18:36;99938.28;;;2.05;66.94
77979;BME280;67169;50.268;8.694;2023-04-06T07:21:03;99938.28;;;2.21;65.74
77979;BME280;67169;50.268;8.694;2023-04-06T07:23:31;99943.56;;;2.18;66.31
77979;BME280;67169;50.268;8.694;2023-04-06T07:25:57;99943.53;;;2.33;65.48
77979;BME280;67169;50.268;8.694;2023-04-06T07:28:24;99939.94;;;2.54;65.97
77979;BME280;67169;50.268;8.694;2023-04-06T07:30:51;99947.88;;;2.66;64.67
77979;BME280;67169;50.268;8.694;2023-04-06T07:33:19;99948.72;;;2.77;65.23
77979;BME280;67169;50.268;8.694;2023-04-06T07:35:46;99936.34;;;2.79;65.61
77979;BME280;67169;50.268;8.694;2023-04-06T07:38:13;99940.59;;;3.17;63.62
77979;BME280;67169;50.268;8.694;2023-04-06T07:40:41;99945.72;;;3.48;63.78
77979;BME280;67169;50.268;8.694;2023-04-06T07:43:09;99936.72;;;3.64;62.63
77979;BME280;67169;50.268;8.694;2023-04-06T07:45:36;99937.44;;;3.92;61.78
77979;BME280;67169;50.268;8.694;2023-04-06T07:48:02;99940.97;;;3.88;60.45
77979;BME280;67169;50.268;8.694;2023-04-06T07:50:29;99917.16;;;3.74;60.31
77979;BME280;67169;50.268;8.694;2023-04-06T07:52:56;99937.22;;;4.14;60.24
77979;BME280;67169;50.268;8.694;2023-04-06T07:55:23;99940.50;;;4.42;58.39
77979;BME280;67169;50.268;8.694;2023-04-06T07:57:51;99941.31;;;4.47;57.52
77979;BME280;67169;50.268;8.694;2023-04-06T08:00:18;99933.22;;;4.59;56.48
77979;BME280;67169;50.268;8.694;2023-04-06T08:02:45;99917.84;;;4.83;56.34
77979;BME280;67169;50.268;8.694;2023-04-06T08:05:11;99941.16;;;4.62;56.94
77979;BME280;67169;50.268;8.694;2023-04-06T08:07:38;99934.03;;;4.64;57.21
77979;BME280;67169;50.268;8.694;2023-04-06T08:10:05;99933.94;;;4.73;56.92
77979;BME280;67169;50.268;8.694;2023-04-06T08:12:32;99935.50;;;4.90;55.94
77979;BME280;67169;50.268;8.694;2023-04-06T08:15:00;99915.88;;;4.97;55.45
77979;BME280;67169;50.268;8.694;2023-04-06T08:17:27;99930.50;;;5.32;55.74
77979;BME280;67169;50.268;8.694;2023-04-06T08:19:55;99936.41;;;5.54;56.45
77979;BME280;67169;50.268;8.694;2023-04-06T08:22:22;99928.75;;;5.88;54.67
77979;BME280;67169;50.268;8.694;2023-04-06T08:24:48;99941.34;;;5.80;54.00
77979;BME280;67169;50.268;8.694;2023-04-06T08:27:15;99936.69;;;5.94;52.76
77979;BME280;67169;50.268;8.694;2023-04-06T08:29:41;99935.66;;;6.04;51.29
77979;BME280;67169;50.268;8.694;2023-04-06T08:32:09;99931.13;;;6.09;51.09
77979;BME280;67169;50.268;8.694;2023-04-06T08:34:36;99944.72;;;5.94;51.68
77979;BME280;67169;50.268;8.694;2023-04-06T08:37:02;99930.44;;;5.95;51.94
77979;BME280;67169;50.268;8.694;2023-04-06T08:39:30;99929.00;;;6.28;51.64
77979;BME280;67169;50.268;8.694;2023-04-06T08:41:59;99934.41;;;6.72;50.22
77979;BME280;67169;50.268;8.694;2023-04-06T08:44:28;99931.84;;;7.10;48.44
77979;BME280;67169;50.268;8.694;2023-04-06T08:46:55;99910.03;;;7.29;47.69
77979;BME280;67169;50.268;8.694;2023-04-06T08:49:23;99926.13;;;7.66;47.14
77979;BME280;67169;50.268;8.694;2023-04-06T08:51:50;99917.72;;;7.43;47.42
77979;BME280;67169;50.268;8.694;2023-04-06T08:54:17;99925.56;;;7.52;47.93
77979;BME280;67169;50.268;8.694;2023-04-06T08:56:44;99925.31;;;7.63;46.98
77979;BME280;67169;50.268;8.694;2023-04-06T08:59:11;99924.81;;;7.47;46.88
77979;BME280;67169;50.268;8.694;2023-04-06T09:01:39;99922.28;;;7.39;47.11
77979;BME280;67169;50.268;8.694;2023-04-06T09:04:07;99916.00;;;7.79;46.29
77979;BME280;67169;50.268;8.694;2023-04-06T09:06:37;99913.38;;;8.12;45.85
77979;BME280;67169;50.268;8.694;2023-04-06T09:09:05;99921.91;;;8.27;45.96
77979;BME280;67169;50.268;8.694;2023-04-06T09:11:46;99919.63;;;8.48;43.54
77979;BME280;67169;50.268;8.694;2023-04-06T09:14:13;99916.03;;;8.80;43.53
77979;BME280;67169;50.268;8.694;2023-04-06T09:16:41;99909.13;;;9.32;42.01
77979;BME280;67169;50.268;8.694;2023-04-06T09:19:08;99913.50;;;9.07;42.49
77979;BME280;67169;50.268;8.694;2023-04-06T09:21:37;99908.59;;;9.49;42.96
77979;BME280;67169;50.268;8.694;2023-04-06T09:24:06;99915.44;;;9.31;42.04
77979;BME280;67169;50.268;8.694;2023-04-06T09:26:44;99891.25;;;9.01;42.08
77979;BME280;67169;50.268;8.694;2023-04-06T09:29:22;99912.22;;;9.18;43.09
77979;BME280;67169;50.268;8.694;2023-04-06T09:31:49;99908.22;;;9.33;42.26
77979;BME280;67169;50.268;8.694;2023-04-06T09:34:20;99896.41;;;9.67;41.48
77979;BME280;67169;50.268;8.694;2023-04-06T09:36:48;99904.53;;;10.18;40.26
77979;BME280;67169;50.268;8.694;2023-04-06T09:39:20;99891.03;;;9.67;41.06
77979;BME280;67169;50.268;8.694;2023-04-06T09:41:53;99893.84;;;9.90;40.80
77979;BME280;67169;50.268;8.694;2023-04-06T09:44:20;99890.53;;;10.35;40.76
77979;BME280;67169;50.268;8.694;2023-04-06T09:46:49;99888.34;;;10.72;40.25
77979;BME280;67169;50.268;8.694;2023-04-06T09:49:16;99890.13;;;10.21;39.48
77979;BME280;67169;50.268;8.694;2023-04-06T09:51:46;99886.81;;;9.86;40.63
77979;BME280;67169;50.268;8.694;2023-04-06T09:54:19;99885.50;;;10.26;41.09
77979;BME280;67169;50.268;8.694;2023-04-06T09:56:50;99893.75;;;10.47;39.93
77979;BME280;67169;50.268;8.694;2023-04-06T09:59:21;99888.56;;;10.65;39.42
77979;BME280;67169;50.268;8.694;2023-04-06T10:01:51;99888.66;;;10.64;40.31
77979;BME280;67169;50.268;8.694;2023-04-06T10:04:26;99882.78;;;11.01;38.54
77979;BME280;67169;50.268;8.694;2023-04-06T10:06:57;99886.00;;;10.87;38.91
77979;BME280;67169;50.268;8.694;2023-04-06T10:09:29;99883.13;;;11.15;38.16
77979;BME280;67169;50.268;8.694;2023-04-06T10:12:02;99887.94;;;11.75;37.65
77979;BME280;67169;50.268;8.694;2023-04-06T10:14:30;99885.66;;;11.42;36.99
77979;BME280;67169;50.268;8.694;2023-04-06T10:16:57;99876.91;;;11.59;37.68
77979;BME280;67169;50.268;8.694;2023-04-06T10:19:42;99881.31;;;11.16;37.04
77979;BME280;67169;50.268;8.694;2023-04-06T10:22:13;99866.00;;;11.62;35.87
77979;BME280;67169;50.268;8.694;2023-04-06T10:24:46;99869.94;;;11.75;36.11
77979;BME280;67169;50.268;8.694;2023-04-06T10:27:13;99869.00;;;11.76;38.00
77979;BME280;67169;50.268;8.694;2023-04-06T10:29:44;99867.63;;;12.10;36.03
77979;BME280;67169;50.268;8.694;2023-04-06T10:32:11;99864.41;;;12.22;35.19
77979;BME280;67169;50.268;8.694;2023-04-06T10:34:38;99872.81;;;11.94;35.89
77979;BME280;67169;50.268;8.694;2023-04-06T10:37:12;99869.69;;;12.25;35.24
77979;BME280;67169;50.268;8.694;2023-04-06T10:39:47;99865.88;;;12.09;33.60
77979;BME280;67169;50.268;8.694;2023-04-06T10:42:14;99869.09;;;11.53;34.91
77979;BME280;67169;50.268;8.694;2023-04-06T10:44:43;99865.88;;;11.65;35.30
77979;BME280;67169;50.268;8.694;2023-04-06T10:47:16;99859.72;;;11.85;36.00
77979;BME280;67169;50.268;8.694;2023-04-06T10:49:44;99854.09;;;12.11;35.06
77979;BME280;67169;50.268;8.694;2023-04-06T10:52:11;99854.41;;;12.65;34.40
77979;BME280;67169;50.268;8.694;2023-04-06T10:54:42;99841.13;;;12.61;34.08
77979;BME280;67169;50.268;8.694;2023-04-06T10:57:10;99789.00;;;12.60;33.37
77979;BME280;67169;50.268;8.694;2023-04-06T10:59:42;99842.69;;;13.24;33.66
77979;BME280;67169;50.268;8.694;2023-04-06T11:02:08;99837.25;;;13.62;32.55
77979;BME280;67169;50.268;8.694;2023-04-06T11:04:35;99821.44;;;12.98;33.49
77979;BME280;67169;50.268;8.694;2023-04-06T11:07:02;99830.06;;;13.44;33.95
77979;BME280;67169;50.268;8.694;2023-04-06T11:09:29;99830.81;;;13.65;32.61
77979;BME280;67169;50.268;8.694;2023-04-06T11:11:57;99829.34;;;13.76;33.75
77979;BME280;67169;50.268;8.694;2023-04-06T11:14:25;99821.59;;;13.69;33.01
77979;BME280;67169;50.268;8.694;2023-04-06T11:16:52;99828.66;;;13.90;32.57
77979;BME280;67169;50.268;8.694;2023-04-06T11:19:19;99836.75;;;13.54;31.75
77979;BME280;67169;50.268;8.694;2023-04-06T11:21:47;99825.13;;;12.95;33.07
77979;BME280;67169;50.268;8.694;2023-04-06T11:24:15;99821.66;;;13.50;33.62
77979;BME280;67169;50.268;8.694;2023-04-06T11:26:43;99814.50;;;13.49;32.94
77979;BME280;67169;50.268;8.694;2023-04-06T11:29:11;99816.00;;;13.17;33.87
77979;BME280;67169;50.268;8.694;2023-04-06T11:31:42;99811.72;;;13.50;32.84
77979;BME280;67169;50.268;8.694;2023-04-06T11:34:10;99796.03;;;14.11;32.18
77979;BME280;67169;50.268;8.694;2023-04-06T11:36:40;99805.19;;;14.25;31.39
77979;BME280;67169;50.268;8.694;2023-04-06T11:39:09;99807.38;;;13.83;30.88
77979;BME280;67169;50.268;8.694;2023-04-06T11:41:35;99807.31;;;14.54;31.02
77979;BME280;67169;50.268;8.694;2023-04-06T11:44:02;99821.41;;;14.43;30.74
77979;BME280;67169;50.268;8.694;2023-04-06T11:46:29;99809.63;;;14.44;30.37
77979;BME280;67169;50.268;8.694;2023-04-06T11:49:00;99814.25;;;14.07;30.85
77979;BME280;67169;50.268;8.694;2023-04-06T11:51:28;99805.81;;;13.78;31.41
77979;BME280;67169;50.268;8.694;2023-04-06T11:53:55;99795.91;;;13.60;32.16
77979;BME280;67169;50.268;8.694;2023-04-06T11:56:23;99795.69;;;13.65;32.85
77979;BME280;67169;50.268;8.694;2023-04-06T11:58:51;99797.19;;;13.53;33.27
77979;BME280;67169;50.268;8.694;2023-04-06T12:01:17;99794.38;;;13.91;32.44
77979;BME280;67169;50.268;8.694;2023-04-06T12:03:44;99797.06;;;13.73;32.96
77979;BME280;67169;50.268;8.694;2023-04-06T12:06:12;99793.81;;;13.84;32.60
77979;BME280;67169;50.268;8.694;2023-04-06T12:08:39;99772.72;;;13.73;32.23
77979;BME280;67169;50.268;8.694;2023-04-06T12:11:05;99787.97;;;13.57;31.56
77979;BME280;67169;50.268;8.694;2023-04-06T12:13:32;99787.38;;;13.87;32.57
77979;BME280;67169;50.268;8.694;2023-04-06T12:15:59;99780.84;;;13.91;31.48
77979;BME280;67169;50.268;8.694;2023-04-06T12:18:25;99785.44;;;14.06;31.25
77979;BME280;67169;50.268;8.694;2023-04-06T12:20:52;99775.19;;;13.78;31.38
77979;BME280;67169;50.268;8.694;2023-04-06T12:23:20;99787.78;;;13.43;32.32
77979;BME280;67169;50.268;8.694;2023-04-06T12:25:47;99781.56;;;13.22;32.13
77979;BME280;67169;50.268;8.694;2023-04-06T12:28:13;99787.50;;;12.92;33.83
77979;BME280;67169;50.268;8.694;2023-04-06T12:30:40;99779.63;;;12.88;33.40
77979;BME280;67169;50.268;8.694;2023-04-06T12:33:07;99782.78;;;12.58;33.16
77979;BME280;67169;50.268;8.694;2023-04-06T12:35:34;99773.31;;;12.68;34.26
77979;BME280;67169;50.268;8.694;2023-04-06T12:38:00;99781.06;;;13.14;34.13
77979;BME280;67169;50.268;8.694;2023-04-06T12:40:28;99771.88;;;13.37;33.83
77979;BME280;67169;50.268;8.694;2023-04-06T12:42:55;99760.47;;;13.49;32.54
77979;BME280;67169;50.268;8.694;2023-04-06T12:45:21;99765.22;;;13.61;31.44
77979;BME280;67169;50.268;8.694;2023-04-06T12:47:48;99767.69;;;13.66;31.85
77979;BME280;67169;50.268;8.694;2023-04-06T12:50:15;99765.09;;;13.64;30.95
77979;BME280;67169;50.268;8.694;2023-04-06T12:52:41;99761.94;;;13.73;31.70
77979;BME280;67169;50.268;8.694;2023-04-06T12:55:09;99756.66;;;13.70;31.64
77979;BME280;67169;50.268;8.694;2023-04-06T12:57:37;99770.38;;;13.48;30.84
77979;BME280;67169;50.268;8.694;2023-04-06T13:00:05;99755.13;;;13.47;30.98
77979;BME280;67169;50.268;8.694;2023-04-06T13:02:31;99758.28;;;13.38;30.63
77979;BME280;67169;50.268;8.694;2023-04-06T13:04:58;99748.72;;;13.67;31.23